Time;durP1;ratioP1;P1;durP2;ratioP2;P2;SDS_P1;SDS_P2;PMS_P1;PMS_P2;Temp;Humidity;BMP_temperature;BMP_pressure;BME280_temperature;BME280_humidity;BME280_pressure;Samples;Min_cycle;Max_cycle;Signal;HPM_P1;HPM_P2
2021/01/14 00:01:42;;;;;;;1.70;1.60;;;2.30;99.90;;;;;;5011669;28;20215;-63
2021/01/14 00:04:08;;;;;;;1.00;1.00;;;2.30;99.90;;;;;;5015323;28;20192;-63
2021/01/14 00:06:33;;;;;;;1.43;1.33;;;2.40;99.90;;;;;;5011638;28;20516;-63
2021/01/14 00:08:59;;;;;;;1.10;1.10;;;2.40;99.90;;;;;;5015092;28;20267;-62
2021/01/14 00:11:28;;;;;;;1.90;1.80;;;2.40;99.90;;;;;;5012265;28;20202;-63
2021/01/14 00:13:53;;;;;;;1.43;1.33;;;2.40;99.90;;;;;;4993021;28;20258;-63
2021/01/14 00:16:19;;;;;;;1.20;1.10;;;2.40;99.90;;;;;;5016055;28;20445;-62
2021/01/14 00:18:45;;;;;;;1.60;1.40;;;2.40;99.90;;;;;;5021988;28;20192;-63
2021/01/14 00:21:11;;;;;;;4.23;2.57;;;2.40;99.90;;;;;;5022500;28;20700;-63
2021/01/14 00:23:36;;;;;;;1.63;1.23;;;2.40;99.90;;;;;;5011590;28;20200;-63
2021/01/14 00:26:02;;;;;;;1.77;1.50;;;2.50;99.90;;;;;;5004562;28;20540;-63
2021/01/14 00:28:28;;;;;;;1.13;1.10;;;2.40;99.90;;;;;;5015068;28;20264;-63
2021/01/14 00:30:54;;;;;;;1.37;1.27;;;2.40;99.90;;;;;;5009819;28;20272;-63
2021/01/14 00:33:23;;;;;;;1.63;1.50;;;2.40;99.90;;;;;;5004582;28;20449;-63
2021/01/14 00:35:51;;;;;;;1.80;1.43;;;2.40;99.90;;;;;;5008997;28;20437;-62
2021/01/14 00:38:17;;;;;;;1.10;1.10;;;2.50;99.90;;;;;;5007557;28;20853;-63
2021/01/14 00:40:42;;;;;;;4.87;1.23;;;2.50;99.90;;;;;;5010638;28;20473;-63
2021/01/14 00:43:08;;;;;;;1.50;1.40;;;2.50;99.90;;;;;;5009140;28;20194;-63
2021/01/14 00:45:35;;;;;;;1.27;1.17;;;2.50;99.90;;;;;;5015966;28;20181;-63
2021/01/14 00:48:01;;;;;;;1.10;1.10;;;2.50;99.90;;;;;;5014653;28;20245;-63
2021/01/14 00:50:27;;;;;;;1.17;1.17;;;2.50;99.90;;;;;;5020731;28;20441;-63
2021/01/14 00:52:54;;;;;;;1.23;1.13;;;2.50;99.90;;;;;;5025755;28;20486;-62
2021/01/14 00:55:20;;;;;;;1.07;1.07;;;2.50;99.90;;;;;;5038201;28;20438;-62
2021/01/14 00:57:47;;;;;;;0.90;0.90;;;2.60;99.90;;;;;;5004559;28;20465;-62
2021/01/14 01:00:15;;;;;;;1.67;1.00;;;2.60;99.90;;;;;;5015474;28;20443;-62
2021/01/14 01:02:51;;;;;;;1.13;0.90;;;2.60;99.90;;;;;;5007290;28;20549;-62
2021/01/14 01:05:17;;;;;;;1.03;0.93;;;2.60;99.90;;;;;;5013264;28;20433;-63
2021/01/14 01:07:57;;;;;;;0.90;0.90;;;2.60;99.90;;;;;;5009742;28;20540;-63
2021/01/14 01:10:23;;;;;;;1.03;0.93;;;2.60;99.90;;;;;;5007915;28;20444;-62
2021/01/14 01:12:53;;;;;;;1.00;1.00;;;2.60;99.90;;;;;;5009436;28;20538;-63
2021/01/14 01:15:19;;;;;;;2.30;1.10;;;2.60;99.90;;;;;;5030712;28;20919;-63
2021/01/14 01:17:45;;;;;;;1.10;1.00;;;2.60;99.90;;;;;;5010740;28;20479;-62
2021/01/14 01:20:13;;;;;;;0.80;0.80;;;2.50;99.90;;;;;;5010697;28;20441;-62
2021/01/14 01:22:39;;;;;;;1.17;1.13;;;2.60;99.90;;;;;;5011337;28;20260;-62
2021/01/14 01:25:07;;;;;;;0.90;0.90;;;2.60;99.90;;;;;;5010986;28;20532;-62
2021/01/14 01:27:34;;;;;;;1.80;0.90;;;2.60;99.90;;;;;;5005488;28;20209;-63
2021/01/14 01:30:00;;;;;;;1.00;0.87;;;2.60;99.90;;;;;;5028988;28;20850;-63
2021/01/14 01:32:26;;;;;;;1.03;0.80;;;2.60;99.90;;;;;;5011211;28;20457;-62
2021/01/14 01:34:52;;;;;;;0.80;0.80;;;2.60;99.90;;;;;;5011115;28;20283;-63
2021/01/14 01:37:17;;;;;;;0.90;0.90;;;2.60;99.90;;;;;;5006870;28;20442;-62
2021/01/14 01:39:43;;;;;;;0.90;0.80;;;2.60;99.90;;;;;;5002835;28;20450;-62
2021/01/14 01:42:09;;;;;;;0.77;0.77;;;2.60;99.90;;;;;;5022925;28;20216;-63
2021/01/14 01:44:34;;;;;;;1.80;0.80;;;2.60;99.90;;;;;;5020056;28;20278;-62
2021/01/14 01:47:05;;;;;;;0.70;0.70;;;2.50;99.90;;;;;;5009053;28;20198;-63
2021/01/14 01:49:35;;;;;;;0.80;0.80;;;2.50;99.90;;;;;;5020839;28;20195;-63
2021/01/14 01:52:03;;;;;;;0.80;0.80;;;2.50;99.90;;;;;;5009256;28;20445;-63
2021/01/14 01:54:32;;;;;;;0.70;0.70;;;2.50;99.90;;;;;;5001241;28;20436;-63
2021/01/14 01:57:00;;;;;;;0.80;0.80;;;2.50;99.90;;;;;;5005167;28;20450;-63
2021/01/14 01:59:26;;;;;;;0.80;0.80;;;2.50;99.90;;;;;;5020253;28;20445;-63
2021/01/14 02:01:52;;;;;;;0.70;0.70;;;2.50;99.90;;;;;;5014171;28;21011;-62
2021/01/14 02:04:18;;;;;;;0.80;0.80;;;2.50;99.90;;;;;;5007956;28;20433;-62
2021/01/14 02:06:55;;;;;;;1.00;0.87;;;2.50;99.90;;;;;;5005739;28;20208;-61
2021/01/14 02:09:23;;;;;;;0.70;0.70;;;2.50;99.90;;;;;;5008403;28;20647;-62
2021/01/14 02:11:59;;;;;;;0.80;0.80;;;2.40;99.90;;;;;;5007148;28;20541;-62
2021/01/14 02:14:28;;;;;;;0.83;0.80;;;2.40;99.90;;;;;;5003341;28;20450;-63
2021/01/14 02:16:55;;;;;;;0.97;0.90;;;2.40;99.90;;;;;;5009490;28;21018;-62
2021/01/14 02:19:37;;;;;;;0.70;0.70;;;2.40;99.90;;;;;;5017330;28;20943;-63
2021/01/14 02:22:11;;;;;;;1.27;0.97;;;2.30;99.90;;;;;;5008968;28;20540;-62
2021/01/14 02:24:45;;;;;;;0.70;0.70;;;2.30;99.90;;;;;;5013636;28;20433;-62
2021/01/14 02:27:14;;;;;;;0.70;0.70;;;2.20;99.90;;;;;;5007475;28;20469;-62
2021/01/14 02:29:42;;;;;;;0.60;0.60;;;2.20;99.90;;;;;;5016710;28;20428;-63
2021/01/14 02:32:16;;;;;;;0.70;0.70;;;2.20;99.90;;;;;;5012879;28;20458;-62
2021/01/14 02:34:41;;;;;;;0.70;0.70;;;2.10;99.90;;;;;;5021512;28;20435;-63
2021/01/14 02:37:07;;;;;;;0.70;0.70;;;2.10;99.90;;;;;;5009876;28;20426;-62
2021/01/14 02:39:35;;;;;;;0.70;0.70;;;2.00;99.90;;;;;;5004999;28;20218;-62
2021/01/14 02:42:01;;;;;;;0.60;0.60;;;2.00;99.90;;;;;;5002991;28;20214;-62
2021/01/14 02:44:26;;;;;;;0.70;0.70;;;2.00;99.90;;;;;;5007742;28;20529;-63
2021/01/14 02:46:52;;;;;;;0.70;0.70;;;2.00;99.90;;;;;;5008691;28;20276;-62
2021/01/14 02:49:18;;;;;;;0.77;0.77;;;1.90;99.90;;;;;;5016103;28;20188;-62
2021/01/14 02:51:54;;;;;;;0.60;0.60;;;1.90;99.90;;;;;;5009049;28;20605;-62
2021/01/14 02:54:20;;;;;;;0.70;0.70;;;1.90;99.90;;;;;;5007704;28;20951;-63
2021/01/14 02:56:50;;;;;;;0.60;0.60;;;1.90;99.90;;;;;;5018411;28;20540;-62
2021/01/14 02:59:15;;;;;;;0.60;0.60;;;1.90;99.90;;;;;;5003370;28;20442;-63
2021/01/14 03:01:41;;;;;;;0.70;0.70;;;1.90;99.90;;;;;;5003882;28;20474;-63
2021/01/14 03:04:09;;;;;;;0.60;0.60;;;1.90;99.90;;;;;;4998450;28;20450;-62
2021/01/14 03:06:35;;;;;;;0.60;0.60;;;1.90;99.90;;;;;;5007892;28;20202;-62
2021/01/14 03:09:01;;;;;;;0.70;0.70;;;1.90;99.90;;;;;;5010076;28;20487;-63
2021/01/14 03:11:31;;;;;;;0.70;0.70;;;1.90;99.90;;;;;;5010534;28;20280;-63
2021/01/14 03:13:57;;;;;;;0.70;0.70;;;1.90;99.90;;;;;;5016135;28;20433;-62
2021/01/14 03:16:23;;;;;;;0.70;0.70;;;1.90;99.90;;;;;;5008600;28;20789;-62
2021/01/14 03:18:51;;;;;;;0.83;0.83;;;1.90;99.90;;;;;;5018899;28;20434;-63
2021/01/14 03:21:23;;;;;;;0.80;0.80;;;1.90;99.90;;;;;;5005911;28;20840;-62
2021/01/14 03:23:49;;;;;;;0.90;0.90;;;1.90;99.90;;;;;;5012370;28;20442;-62
2021/01/14 03:26:15;;;;;;;0.93;0.93;;;1.80;99.90;;;;;;5017415;28;21425;-62
2021/01/14 03:28:42;;;;;;;0.70;0.70;;;1.80;99.90;;;;;;5006781;28;20529;-62
2021/01/14 03:31:10;;;;;;;0.90;0.90;;;1.80;99.90;;;;;;5022051;28;20479;-62
2021/01/14 03:33:39;;;;;;;0.80;0.80;;;1.80;99.90;;;;;;5011498;28;20948;-62
2021/01/14 03:36:06;;;;;;;0.80;0.80;;;1.80;99.90;;;;;;5012050;28;20431;-62
2021/01/14 03:38:33;;;;;;;0.70;0.70;;;1.80;99.90;;;;;;5008830;28;20480;-62
2021/01/14 03:40:59;;;;;;;0.60;0.60;;;1.80;99.90;;;;;;5009492;28;20472;-63
2021/01/14 03:43:25;;;;;;;0.73;0.70;;;1.80;99.90;;;;;;5012982;28;20419;-62
2021/01/14 03:45:51;;;;;;;0.70;0.70;;;1.70;99.90;;;;;;5016402;28;20430;-63
2021/01/14 03:48:17;;;;;;;0.67;0.67;;;1.70;99.90;;;;;;5010157;28;20206;-62
2021/01/14 03:50:43;;;;;;;0.70;0.70;;;1.70;99.90;;;;;;5019565;28;20210;-62
2021/01/14 03:53:08;;;;;;;0.60;0.60;;;1.70;99.90;;;;;;5020009;28;20437;-62
2021/01/14 03:55:34;;;;;;;0.77;0.77;;;1.70;99.90;;;;;;5017749;28;20433;-62
2021/01/14 03:58:00;;;;;;;0.60;0.60;;;1.70;99.90;;;;;;5013903;28;20189;-62
2021/01/14 04:00:25;;;;;;;0.70;0.70;;;1.70;99.90;;;;;;5011768;28;20236;-62
2021/01/14 04:02:51;;;;;;;0.70;0.70;;;1.60;99.90;;;;;;5006053;28;20193;-63
2021/01/14 04:05:17;;;;;;;0.70;0.70;;;1.60;99.90;;;;;;5014054;28;20192;-62
2021/01/14 04:07:43;;;;;;;0.80;0.80;;;1.60;99.90;;;;;;5011549;28;20861;-62
2021/01/14 04:10:09;;;;;;;0.60;0.60;;;1.60;99.90;;;;;;5020392;28;20433;-62
2021/01/14 04:12:38;;;;;;;0.70;0.70;;;1.60;99.90;;;;;;5012684;28;20194;-62
2021/01/14 04:15:04;;;;;;;0.70;0.70;;;1.60;99.90;;;;;;4997755;28;20202;-62
2021/01/14 04:17:29;;;;;;;0.70;0.70;;;1.50;99.90;;;;;;5010813;28;20441;-63
2021/01/14 04:19:55;;;;;;;2.10;0.70;;;1.50;99.90;;;;;;5013733;28;20443;-62
2021/01/14 04:22:22;;;;;;;2.70;0.70;;;1.50;99.90;;;;;;5011476;28;20735;-62
2021/01/14 04:24:48;;;;;;;0.60;0.60;;;1.50;99.90;;;;;;5010599;28;20437;-62
2021/01/14 04:27:13;;;;;;;0.60;0.60;;;1.50;99.90;;;;;;5014241;28;20237;-63
2021/01/14 04:29:39;;;;;;;0.83;0.73;;;1.50;99.90;;;;;;5015795;28;20504;-63
2021/01/14 04:32:05;;;;;;;0.60;0.60;;;1.40;99.90;;;;;;5016836;28;20197;-63
2021/01/14 04:34:30;;;;;;;0.70;0.70;;;1.40;99.90;;;;;;5012352;28;20708;-63
2021/01/14 04:37:00;;;;;;;0.70;0.70;;;1.40;99.90;;;;;;5012214;28;20228;-63
2021/01/14 04:39:27;;;;;;;0.70;0.70;;;1.40;99.90;;;;;;5008300;28;20692;-63
2021/01/14 04:41:58;;;;;;;0.77;0.77;;;1.40;99.90;;;;;;5009325;28;20895;-63
2021/01/14 04:44:25;;;;;;;0.60;0.60;;;1.40;99.90;;;;;;5024456;28;20421;-62
2021/01/14 04:47:02;;;;;;;0.60;0.60;;;1.40;99.90;;;;;;5013252;28;20461;-63
2021/01/14 04:49:28;;;;;;;0.70;0.70;;;1.40;99.90;;;;;;5013128;28;20953;-63
2021/01/14 04:52:01;;;;;;;0.70;0.70;;;1.40;99.90;;;;;;5009080;28;20818;-63
2021/01/14 04:54:35;;;;;;;0.80;0.80;;;1.40;99.90;;;;;;5012449;28;20897;-63
2021/01/14 04:57:18;;;;;;;1.20;1.00;;;1.40;99.90;;;;;;5015787;28;20446;-63
2021/01/14 04:59:53;;;;;;;0.93;0.80;;;1.40;99.90;;;;;;5013554;28;20949;-63
2021/01/14 05:02:24;;;;;;;0.70;0.70;;;1.40;99.90;;;;;;5008087;28;20456;-63
2021/01/14 05:04:51;;;;;;;1.30;1.20;;;1.40;99.90;;;;;;5013184;28;20436;-62
2021/01/14 05:07:31;;;;;;;3.03;1.93;;;1.40;99.90;;;;;;4999736;28;21053;-63
2021/01/14 05:10:05;;;;;;;2.33;2.13;;;1.40;99.90;;;;;;5007995;28;20460;-63
2021/01/14 05:12:32;;;;;;;1.20;1.10;;;1.40;99.90;;;;;;5006989;28;20952;-63
2021/01/14 05:15:02;;;;;;;1.17;0.93;;;1.40;99.90;;;;;;5023023;28;20440;-63
2021/01/14 05:17:28;;;;;;;2.27;1.60;;;1.40;99.90;;;;;;5018662;28;20429;-63
2021/01/14 05:19:55;;;;;;;1.07;1.07;;;1.40;99.90;;;;;;5015382;28;20516;-55
2021/01/14 05:22:24;;;;;;;1.63;1.53;;;1.40;99.90;;;;;;5005840;28;21013;-64
2021/01/14 05:25:09;;;;;;;1.23;1.17;;;1.40;99.90;;;;;;5017528;28;20445;-64
2021/01/14 05:27:36;;;;;;;1.60;1.40;;;1.40;99.90;;;;;;4999474;28;20468;-62
2021/01/14 05:30:11;;;;;;;1.20;1.10;;;1.50;99.90;;;;;;5002193;28;20472;-64
2021/01/14 05:32:38;;;;;;;1.00;1.00;;;1.50;99.90;;;;;;5004177;28;20446;-64
2021/01/14 05:35:07;;;;;;;0.90;0.90;;;1.50;99.90;;;;;;5010059;28;20955;-63
2021/01/14 05:37:43;;;;;;;2.23;1.57;;;1.50;99.90;;;;;;5006666;28;20816;-63
2021/01/14 05:40:22;;;;;;;1.70;1.60;;;1.40;99.90;;;;;;4999746;28;20432;-63
2021/01/14 05:43:06;;;;;;;1.27;1.17;;;1.40;99.90;;;;;;5001813;28;20448;-63
2021/01/14 05:45:35;;;;;;;1.20;1.17;;;1.40;99.90;;;;;;5011086;28;20433;-64
2021/01/14 05:48:11;;;;;;;1.70;1.20;;;1.40;99.90;;;;;;5006927;28;20832;-64
2021/01/14 05:50:47;;;;;;;1.13;1.10;;;1.40;99.90;;;;;;5001243;28;20734;-63
2021/01/14 05:53:17;;;;;;;0.83;0.83;;;1.30;99.90;;;;;;5006264;28;20443;-63
2021/01/14 05:55:50;;;;;;;0.73;0.73;;;1.40;99.90;;;;;;5005712;28;20430;-63
2021/01/14 05:58:18;;;;;;;0.80;0.80;;;1.30;99.90;;;;;;5002379;28;20485;-63
2021/01/14 06:00:45;;;;;;;0.80;0.80;;;1.30;99.90;;;;;;5005110;28;20453;-63
2021/01/14 06:03:28;;;;;;;1.10;1.10;;;1.30;99.90;;;;;;5006527;28;20431;-63
2021/01/14 06:05:55;;;;;;;1.30;1.20;;;1.30;99.90;;;;;;5002603;28;20517;-63
2021/01/14 06:08:25;;;;;;;1.00;1.00;;;1.30;99.90;;;;;;4979036;28;20474;-63
2021/01/14 06:10:52;;;;;;;1.17;1.17;;;1.30;99.90;;;;;;5000048;28;20449;-63
2021/01/14 06:13:18;;;;;;;1.13;1.10;;;1.30;99.90;;;;;;5002900;28;20467;-63
2021/01/14 06:15:43;;;;;;;2.00;1.10;;;1.30;99.90;;;;;;5006096;28;20426;-63
2021/01/14 06:18:11;;;;;;;1.00;0.90;;;1.30;99.90;;;;;;5006529;28;20418;-63
2021/01/14 06:20:55;;;;;;;1.30;1.20;;;1.30;99.90;;;;;;5004578;28;20248;-63
2021/01/14 06:23:22;;;;;;;1.30;1.20;;;1.30;99.90;;;;;;5005469;28;20437;-62
2021/01/14 06:25:56;;;;;;;2.17;1.53;;;1.30;99.90;;;;;;5001227;28;20431;-63
2021/01/14 06:28:33;;;;;;;1.43;1.33;;;1.30;99.90;;;;;;5006263;28;20469;-63
2021/01/14 06:31:03;;;;;;;1.47;1.37;;;1.30;99.90;;;;;;5005654;28;20448;-63
2021/01/14 06:33:30;;;;;;;1.10;1.00;;;1.30;99.90;;;;;;5012698;28;20433;-63
2021/01/14 06:36:33;;;;;;;1.17;1.10;;;1.30;99.90;;;;;;4994456;28;20430;-63
2021/01/14 06:39:09;;;;;;;1.57;1.10;;;1.30;99.90;;;;;;4998735;28;20448;-62
2021/01/14 06:41:38;;;;;;;3.77;1.30;;;1.20;99.90;;;;;;5002965;28;20836;-62
2021/01/14 06:44:07;;;;;;;1.40;1.30;;;1.30;99.90;;;;;;5002742;28;20807;-63
2021/01/14 06:46:35;;;;;;;1.77;1.67;;;1.20;99.90;;;;;;4988887;28;20466;-63
2021/01/14 06:49:03;;;;;;;2.40;1.20;;;1.30;99.90;;;;;;4992041;28;20445;-63
2021/01/14 06:51:53;;;;;;;1.13;1.13;;;1.20;99.90;;;;;;4997466;28;20468;-63
2021/01/14 06:54:20;;;;;;;1.57;1.47;;;1.30;99.90;;;;;;4999938;28;20819;-63
2021/01/14 06:57:16;;;;;;;1.40;1.30;;;1.30;99.90;;;;;;4996160;28;20429;-58
2021/01/14 06:59:43;;;;;;;1.97;1.40;;;1.30;99.90;;;;;;4999610;28;20953;-63
2021/01/14 07:02:26;;;;;;;1.30;1.20;;;1.30;99.90;;;;;;4996255;28;20452;-64
2021/01/14 07:05:05;;;;;;;1.20;1.20;;;1.30;99.90;;;;;;4999305;28;20436;-63
2021/01/14 07:07:45;;;;;;;1.07;1.00;;;1.30;99.90;;;;;;4993290;28;21109;-62
2021/01/14 07:10:16;;;;;;;1.00;1.00;;;1.30;99.90;;;;;;5009961;28;20437;-63
2021/01/14 07:12:44;;;;;;;1.40;1.30;;;1.30;99.90;;;;;;4997298;28;20452;-63
2021/01/14 07:15:11;;;;;;;1.10;1.10;;;1.30;99.90;;;;;;4999433;28;20463;-63
2021/01/14 07:17:39;;;;;;;1.10;1.10;;;1.30;99.90;;;;;;4989016;28;20522;-63
2021/01/14 07:20:08;;;;;;;1.20;1.10;;;1.30;99.90;;;;;;4998801;28;20503;-63
2021/01/14 07:22:38;;;;;;;1.47;1.37;;;1.30;99.90;;;;;;4989926;28;20453;-62
2021/01/14 07:25:05;;;;;;;1.87;1.77;;;1.30;99.90;;;;;;4997765;28;20432;-62
2021/01/14 07:27:35;;;;;;;2.20;1.80;;;1.30;99.90;;;;;;4997461;28;20488;-62
2021/01/14 07:30:02;;;;;;;4.80;3.00;;;1.30;99.90;;;;;;4992739;28;20474;-62
2021/01/14 07:32:53;;;;;;;6.60;3.77;;;1.40;99.90;;;;;;4994992;28;20458;-62
2021/01/14 07:35:48;;;;;;;2.47;2.27;;;1.40;99.90;;;;;;4998322;28;20465;-62
2021/01/14 07:38:16;;;;;;;2.50;2.30;;;1.40;99.90;;;;;;4993663;28;20437;-62
2021/01/14 07:40:43;;;;;;;4.23;3.03;;;1.40;99.90;;;;;;4996332;28;20461;-63
2021/01/14 07:43:11;;;;;;;6.50;3.90;;;1.40;99.90;;;;;;5005982;28;20448;-63
2021/01/14 07:45:37;;;;;;;6.57;4.20;;;1.40;99.90;;;;;;5000727;28;20499;-63
2021/01/14 07:48:19;;;;;;;9.13;5.53;;;1.40;99.90;;;;;;5005837;28;20567;-63
2021/01/14 07:50:57;;;;;;;13.63;5.43;;;1.40;99.90;;;;;;4997045;28;20453;-63
2021/01/14 07:53:24;;;;;;;5.10;3.40;;;1.40;99.90;;;;;;5004318;28;20954;-63
2021/01/14 07:55:50;;;;;;;3.17;2.70;;;1.50;99.90;;;;;;5005923;28;20425;-62
2021/01/14 07:58:22;;;;;;;3.07;2.77;;;1.40;99.90;;;;;;5004674;28;20471;-62
2021/01/14 08:01:07;;;;;;;3.40;3.10;;;1.40;99.90;;;;;;5007040;28;20453;-62
2021/01/14 08:03:37;;;;;;;4.07;3.50;;;1.40;99.90;;;;;;4998158;28;20480;-61
2021/01/14 08:06:28;;;;;;;2.17;2.07;;;1.40;99.90;;;;;;5007418;28;20465;-62
2021/01/14 08:08:56;;;;;;;2.40;2.20;;;1.50;99.90;;;;;;5003480;28;20467;-62
2021/01/14 08:11:25;;;;;;;3.00;2.47;;;1.50;99.90;;;;;;5005316;28;20501;-63
2021/01/14 08:14:18;;;;;;;2.87;2.47;;;1.50;99.90;;;;;;5004901;28;20436;-63
2021/01/14 08:16:47;;;;;;;2.07;1.97;;;1.50;99.90;;;;;;5003628;28;21195;-62
2021/01/14 08:19:20;;;;;;;3.13;2.77;;;1.40;99.90;;;;;;4999646;28;20428;-61
2021/01/14 08:21:49;;;;;;;4.90;3.10;;;1.40;99.90;;;;;;5017753;28;20490;-62
2021/01/14 08:24:39;;;;;;;15.40;10.07;;;1.50;99.90;;;;;;5013380;28;20434;-62
2021/01/14 08:27:13;;;;;;;5.87;4.50;;;1.50;99.90;;;;;;5002556;28;20546;-62
2021/01/14 08:29:54;;;;;;;4.83;3.60;;;1.40;99.90;;;;;;4997233;28;20463;-62
2021/01/14 08:32:40;;;;;;;4.57;3.20;;;1.50;99.90;;;;;;5004471;28;20461;-62
2021/01/14 08:35:30;;;;;;;4.30;3.40;;;1.50;99.90;;;;;;5003478;28;20440;-62
2021/01/14 08:38:07;;;;;;;3.80;3.33;;;1.50;99.90;;;;;;5002248;28;21354;-62
2021/01/14 08:40:35;;;;;;;3.97;3.30;;;1.50;99.90;;;;;;5002611;28;21146;-62
2021/01/14 08:43:16;;;;;;;3.97;2.90;;;1.50;99.90;;;;;;5004547;28;20942;-62
2021/01/14 08:45:54;;;;;;;2.60;2.40;;;1.60;99.90;;;;;;5003777;28;20441;-63
2021/01/14 08:48:22;;;;;;;2.63;2.07;;;1.60;99.90;;;;;;5003913;28;20510;-63
2021/01/14 08:50:47;;;;;;;4.50;2.60;;;1.60;99.90;;;;;;5004982;28;20451;-62
2021/01/14 08:53:19;;;;;;;1.90;1.60;;;1.60;99.90;;;;;;5004176;28;20428;-62
2021/01/14 08:55:58;;;;;;;3.73;1.93;;;1.60;99.90;;;;;;5003169;28;20202;-62
2021/01/14 08:58:47;;;;;;;1.50;1.40;;;1.60;99.90;;;;;;5004409;28;20466;-63
2021/01/14 09:01:22;;;;;;;1.40;1.30;;;1.60;99.90;;;;;;5001048;28;20833;-62
2021/01/14 09:03:50;;;;;;;1.23;1.13;;;1.50;99.90;;;;;;4998111;28;20441;-62
2021/01/14 09:06:29;;;;;;;1.30;1.20;;;1.50;99.90;;;;;;5017486;28;20881;-63
2021/01/14 09:08:57;;;;;;;1.00;1.00;;;1.50;99.90;;;;;;5002277;28;20476;-62
2021/01/14 09:11:24;;;;;;;1.63;1.30;;;1.50;99.90;;;;;;5001064;28;20483;-62
2021/01/14 09:14:02;;;;;;;4.10;1.20;;;1.50;99.90;;;;;;5001750;28;20453;-62
2021/01/14 09:16:33;;;;;;;1.27;1.17;;;1.50;99.90;;;;;;5004269;28;20437;-62
2021/01/14 09:19:00;;;;;;;3.07;1.23;;;1.50;99.90;;;;;;5006854;28;20460;-62
2021/01/14 09:21:27;;;;;;;1.00;1.00;;;1.50;99.90;;;;;;4999837;28;20516;-63
2021/01/14 09:23:52;;;;;;;1.27;1.17;;;1.50;99.90;;;;;;4995511;28;20425;-63
2021/01/14 09:26:20;;;;;;;1.47;1.37;;;1.50;99.90;;;;;;5001700;28;20427;-63
2021/01/14 09:28:53;;;;;;;1.30;1.20;;;1.50;99.90;;;;;;5003463;28;20187;-62
2021/01/14 09:31:20;;;;;;;0.97;0.97;;;1.50;99.90;;;;;;5003700;28;20496;-62
2021/01/14 09:33:49;;;;;;;1.30;1.20;;;1.50;99.90;;;;;;5002071;28;20434;-62
2021/01/14 09:36:19;;;;;;;1.93;1.50;;;1.50;99.90;;;;;;5003165;28;20429;-62
2021/01/14 09:38:53;;;;;;;1.93;1.83;;;1.50;99.90;;;;;;5003278;28;20536;-62
2021/01/14 09:41:26;;;;;;;2.67;2.00;;;1.50;99.90;;;;;;4997345;28;20464;-63
2021/01/14 09:43:54;;;;;;;9.13;2.73;;;1.50;99.90;;;;;;5004669;28;20920;-62
2021/01/14 09:46:23;;;;;;;1.90;1.57;;;1.50;99.90;;;;;;5006478;28;20437;-62
2021/01/14 09:48:55;;;;;;;1.30;1.20;;;1.50;99.90;;;;;;4996421;28;20436;-62
2021/01/14 09:51:23;;;;;;;1.03;0.90;;;1.40;99.90;;;;;;5001076;28;21064;-62
2021/01/14 09:53:49;;;;;;;1.83;1.30;;;1.40;99.90;;;;;;4999677;28;21186;-61
2021/01/14 09:56:38;;;;;;;1.87;1.20;;;1.40;99.90;;;;;;4996728;28;20426;-62
2021/01/14 09:59:29;;;;;;;5.33;2.77;;;1.40;99.90;;;;;;4997634;28;20429;-61
2021/01/14 10:02:10;;;;;;;4.83;2.43;;;1.30;99.90;;;;;;4996222;28;20496;-63
2021/01/14 10:04:41;;;;;;;1.40;1.30;;;1.30;99.90;;;;;;4997509;28;20433;-62
2021/01/14 10:07:13;;;;;;;2.27;1.80;;;1.20;99.90;;;;;;5016022;28;20457;-62
2021/01/14 10:09:40;;;;;;;1.37;1.30;;;1.20;99.90;;;;;;4998065;28;20487;-62
2021/01/14 10:12:06;;;;;;;1.00;1.00;;;1.20;99.90;;;;;;5001073;28;20460;-62
2021/01/14 10:14:32;;;;;;;1.20;1.20;;;1.10;99.90;;;;;;4996270;28;20474;-62
2021/01/14 10:17:11;;;;;;;1.00;0.90;;;1.10;99.90;;;;;;4998072;28;20523;-63
2021/01/14 10:19:52;;;;;;;0.77;0.77;;;1.10;99.90;;;;;;4996306;28;21111;-62
2021/01/14 10:22:18;;;;;;;0.70;0.63;;;1.10;99.90;;;;;;4993263;28;20464;-62
2021/01/14 10:24:44;;;;;;;0.90;0.80;;;1.00;99.90;;;;;;4997958;28;20772;-63
2021/01/14 10:27:14;;;;;;;1.37;0.87;;;1.00;99.90;;;;;;4998725;28;21019;-63
2021/01/14 10:29:42;;;;;;;1.67;1.00;;;0.90;99.90;;;;;;4999492;28;20621;-61
2021/01/14 10:32:10;;;;;;;1.00;0.83;;;0.90;99.90;;;;;;4996201;28;20484;-63
2021/01/14 10:34:41;;;;;;;0.80;0.80;;;0.90;99.90;;;;;;5000687;28;20441;-63
2021/01/14 10:37:29;;;;;;;1.03;0.97;;;0.90;99.90;;;;;;4999767;28;20464;-63
2021/01/14 10:40:03;;;;;;;1.20;1.10;;;0.90;99.90;;;;;;5005770;28;20472;-62
2021/01/14 10:42:35;;;;;;;2.10;1.00;;;0.90;99.90;;;;;;5017286;28;20468;-63
2021/01/14 10:45:12;;;;;;;1.10;1.10;;;0.90;99.90;;;;;;5019214;28;21400;-63
2021/01/14 10:47:41;;;;;;;1.30;1.20;;;0.90;99.90;;;;;;5006441;28;20568;-61
2021/01/14 10:50:20;;;;;;;1.73;1.13;;;0.90;99.90;;;;;;4996305;28;20424;-62
2021/01/14 10:53:02;;;;;;;1.90;1.53;;;0.80;99.90;;;;;;4994586;28;20453;-62
2021/01/14 10:55:28;;;;;;;1.40;1.27;;;0.80;99.90;;;;;;4991706;28;20523;-62
2021/01/14 10:57:58;;;;;;;1.17;1.07;;;0.80;99.90;;;;;;4997215;28;20919;-62
2021/01/14 11:00:26;;;;;;;1.43;1.27;;;0.80;99.90;;;;;;5001558;28;20438;-62
2021/01/14 11:03:05;;;;;;;5.13;3.20;;;0.80;99.90;;;;;;4998249;28;20446;-62
2021/01/14 11:05:47;;;;;;;4.73;2.70;;;0.80;99.90;;;;;;4995798;28;20448;-63
2021/01/14 11:08:20;;;;;;;1.33;1.23;;;0.80;99.90;;;;;;4996168;28;20522;-62
2021/01/14 11:10:59;;;;;;;2.93;1.90;;;0.80;99.90;;;;;;4995047;28;20470;-62
2021/01/14 11:13:36;;;;;;;2.33;2.13;;;0.80;99.90;;;;;;5012166;28;20433;-61
2021/01/14 11:16:03;;;;;;;5.20;3.60;;;0.80;99.90;;;;;;4993031;28;20437;-61
2021/01/14 11:18:28;;;;;;;2.63;2.40;;;0.80;99.90;;;;;;5005500;28;20977;-62
2021/01/14 11:20:54;;;;;;;1.70;1.60;;;0.80;99.90;;;;;;5000894;28;21039;-61
2021/01/14 11:23:20;;;;;;;1.87;1.77;;;0.80;99.90;;;;;;4992709;28;20202;-62
2021/01/14 11:25:46;;;;;;;5.07;4.57;;;0.80;99.90;;;;;;4998367;28;20222;-61
2021/01/14 11:28:11;;;;;;;2.97;2.77;;;0.80;99.90;;;;;;5014628;28;20226;-62
2021/01/14 11:30:37;;;;;;;3.00;1.97;;;0.70;99.90;;;;;;4997677;28;20434;-61
2021/01/14 11:33:03;;;;;;;1.93;1.83;;;0.70;99.90;;;;;;5002537;28;20185;-63
2021/01/14 11:35:29;;;;;;;2.57;1.90;;;0.70;99.90;;;;;;5002319;28;20186;-62
2021/01/14 11:37:55;;;;;;;3.40;2.33;;;0.70;99.90;;;;;;5002959;28;20447;-63
2021/01/14 11:40:20;;;;;;;2.07;1.80;;;0.70;99.90;;;;;;5002421;28;20190;-61
2021/01/14 11:42:46;;;;;;;2.27;1.90;;;0.70;99.90;;;;;;4985267;28;20604;-62
2021/01/14 11:45:12;;;;;;;5.93;3.03;;;0.60;99.90;;;;;;5004639;28;20202;-62
2021/01/14 11:47:38;;;;;;;3.33;2.33;;;0.60;99.90;;;;;;5002085;28;20460;-61
2021/01/14 11:50:04;;;;;;;3.00;2.20;;;0.60;99.90;;;;;;4997847;28;21037;-61
2021/01/14 11:52:30;;;;;;;2.63;2.43;;;0.60;99.90;;;;;;4990791;28;20221;-61
2021/01/14 11:54:56;;;;;;;2.27;2.10;;;0.50;99.90;;;;;;4991620;28;21025;-63
2021/01/14 11:57:27;;;;;;;4.30;3.63;;;0.50;99.90;;;;;;4996581;28;20228;-62
2021/01/14 11:59:53;;;;;;;6.60;4.90;;;0.50;99.90;;;;;;4995260;28;20194;-62
2021/01/14 12:02:21;;;;;;;12.10;7.83;;;0.40;99.90;;;;;;4994051;28;20518;-62
2021/01/14 12:04:47;;;;;;;10.67;5.40;;;0.40;99.90;;;;;;4998168;28;20187;-62
2021/01/14 12:07:13;;;;;;;2.57;2.00;;;0.50;99.90;;;;;;5013652;28;20462;-63
2021/01/14 12:09:40;;;;;;;1.73;1.63;;;0.40;99.90;;;;;;5002391;28;20471;-58
2021/01/14 12:12:06;;;;;;;1.47;1.43;;;0.40;99.90;;;;;;5007926;28;20459;-62
2021/01/14 12:14:32;;;;;;;1.60;1.50;;;0.40;99.90;;;;;;5006193;28;20467;-62
2021/01/14 12:16:57;;;;;;;1.30;1.20;;;0.40;99.90;;;;;;5005664;28;20488;-62
2021/01/14 12:19:24;;;;;;;1.57;1.30;;;0.30;99.90;;;;;;5006121;28;20593;-63
2021/01/14 12:22:03;;;;;;;2.60;1.37;;;0.30;99.90;;;;;;5007690;28;20459;-62
2021/01/14 12:24:29;;;;;;;1.57;1.47;;;0.30;99.90;;;;;;5000732;28;20197;-62
2021/01/14 12:26:55;;;;;;;1.50;1.40;;;0.30;99.90;;;;;;4998235;28;20587;-63
2021/01/14 12:29:20;;;;;;;1.40;1.30;;;0.20;99.90;;;;;;4992770;28;21147;-61
2021/01/14 12:31:46;;;;;;;2.40;1.63;;;0.20;99.90;;;;;;5003555;28;20222;-61
2021/01/14 12:34:12;;;;;;;1.50;1.40;;;0.20;99.90;;;;;;4997613;28;20178;-63
2021/01/14 12:36:37;;;;;;;1.30;1.20;;;0.30;99.90;;;;;;4998791;28;20920;-63
2021/01/14 12:39:03;;;;;;;1.60;1.30;;;0.30;99.90;;;;;;4996857;28;20189;-63
2021/01/14 12:41:33;;;;;;;1.20;1.10;;;0.20;99.90;;;;;;5000598;28;20924;-63
2021/01/14 12:43:59;;;;;;;1.37;1.27;;;0.20;99.90;;;;;;4995712;28;20428;-62
2021/01/14 12:46:42;;;;;;;1.50;1.40;;;0.10;99.90;;;;;;4997684;28;20449;-63
2021/01/14 12:49:09;;;;;;;3.00;2.37;;;0.10;99.90;;;;;;4999279;28;20591;-66
2021/01/14 12:51:37;;;;;;;1.20;1.10;;;0.10;99.90;;;;;;5001218;28;20532;-63
2021/01/14 12:54:03;;;;;;;1.40;1.30;;;0.10;99.90;;;;;;5002113;28;20508;-63
2021/01/14 12:56:29;;;;;;;1.80;1.10;;;0.10;99.90;;;;;;4990118;28;20433;-63
2021/01/14 12:58:55;;;;;;;2.60;1.50;;;0.10;99.90;;;;;;4997127;28;20563;-63
2021/01/14 13:01:41;;;;;;;6.27;1.63;;;0.10;99.90;;;;;;5001138;28;20281;-62
2021/01/14 13:04:10;;;;;;;1.23;1.23;;;0.00;99.90;;;;;;5002225;28;20528;-63
2021/01/14 13:06:37;;;;;;;1.30;1.30;;;-0.10;99.90;;;;;;5004175;28;20429;-63
2021/01/14 13:09:08;;;;;;;1.60;1.50;;;-0.10;99.90;;;;;;5003444;28;20441;-63
2021/01/14 13:11:35;;;;;;;1.60;1.50;;;-0.20;99.90;;;;;;5013364;28;21041;-63
2021/01/14 13:14:01;;;;;;;1.77;1.43;;;-0.20;99.90;;;;;;4995668;28;20445;-64